Saint Clair Township, Michigan
Current Conditions -  °F | °C
As of 1:16 AM on Wednesday 22 Oct 2014 (Local Time) from KPHN Reporting Station
Overcast Overcast  
Wind Chill: 41°   Ceiling: 1900
Heat Index: 46°   Visibility: 10mi
Dew Point: 41°   Wind: 10mph
Humidity: 81%   Direction: 20°NNE
Pressure: 30.2"   Gusts: NA
Location:  42.858°N, 82.5493°W
Report Text: KPHN 220516Z AUTO 02009KT 10SM OVC019 08/05 A3020 RMK AO2
Loading
Personal Weather Stations






























Interactive Weather Map
Tropical Storm Tracking
New forecast layout! Learn more

10-Day Weather Forecast

Advertisements
Track Severe Weather on mobile